createdAt,value
2023-05-06T00:00:36.131Z,33.57
2023-05-06T00:03:04.588Z,36.80
2023-05-06T00:05:33.096Z,41.10
2023-05-06T00:08:02.804Z,43.07
2023-05-06T00:10:31.182Z,34.03
2023-05-06T00:12:59.542Z,34.37
2023-05-06T00:15:30.088Z,33.80
2023-05-06T00:18:00.000Z,40.53
2023-05-06T00:20:29.247Z,40.00
2023-05-06T00:23:00.109Z,43.70
2023-05-06T00:25:30.088Z,43.13
2023-05-06T00:27:58.740Z,51.63
2023-05-06T00:30:28.037Z,52.57
2023-05-06T00:32:56.904Z,45.17
2023-05-06T00:35:25.785Z,63.80
2023-05-06T00:37:59.223Z,57.07
2023-05-06T00:40:29.426Z,49.87
2023-05-06T00:42:58.124Z,53.83
2023-05-06T00:45:27.634Z,40.80
2023-05-06T00:47:57.079Z,60.67
2023-05-06T00:50:28.272Z,42.50
2023-05-06T00:52:58.382Z,39.40
2023-05-06T00:55:26.855Z,46.90
2023-05-06T00:57:56.909Z,43.00
2023-05-06T01:00:25.787Z,41.70
2023-05-06T01:02:54.266Z,43.10
2023-05-06T01:05:25.701Z,53.83
2023-05-06T01:08:02.383Z,50.97
2023-05-06T01:10:40.169Z,36.83
2023-05-06T01:13:16.406Z,35.57
2023-05-06T01:15:47.932Z,38.07
2023-05-06T01:18:19.206Z,37.27
2023-05-06T01:20:51.502Z,44.33
2023-05-06T01:23:21.949Z,56.00
2023-05-06T01:25:50.773Z,37.63
2023-05-06T01:28:19.629Z,41.50
2023-05-06T01:30:59.070Z,49.67
2023-05-06T01:33:36.175Z,41.70
2023-05-06T01:36:15.841Z,42.57
2023-05-06T01:38:54.996Z,41.07
2023-05-06T01:41:27.030Z,48.43
2023-05-06T01:43:56.024Z,34.47
2023-05-06T01:46:27.417Z,41.97
2023-05-06T01:48:58.286Z,41.60
2023-05-06T01:51:27.432Z,43.40
2023-05-06T01:53:57.478Z,45.73
2023-05-06T01:56:27.123Z,47.57
2023-05-06T01:58:55.988Z,46.27
2023-05-06T02:01:25.829Z,97.60
2023-05-06T02:03:54.579Z,41.20
2023-05-06T02:06:23.307Z,70.23
2023-05-06T02:08:52.657Z,136.77
2023-05-06T02:11:23.273Z,78.40
2023-05-06T02:13:52.401Z,28.23
2023-05-06T02:16:22.023Z,30.87
2023-05-06T02:18:50.980Z,56.23
2023-05-06T02:21:19.895Z,106.87
2023-05-06T02:23:49.826Z,120.43
2023-05-06T02:26:18.637Z,45.77
2023-05-06T02:28:48.954Z,158.23
2023-05-06T02:31:17.864Z,98.57
2023-05-06T02:33:47.262Z,94.93
2023-05-06T02:36:15.734Z,46.83
2023-05-06T02:38:44.282Z,88.40
2023-05-06T02:41:12.862Z,128.00
2023-05-06T02:43:41.251Z,103.93
2023-05-06T02:46:11.597Z,396.73
2023-05-06T02:48:40.003Z,81.20
2023-05-06T02:51:08.421Z,86.87
2023-05-06T02:53:36.812Z,98.27
2023-05-06T02:56:06.007Z,85.73
2023-05-06T02:58:34.429Z,298.00
2023-05-06T03:01:02.819Z,43.40
2023-05-06T03:03:32.677Z,32.67
2023-05-06T03:06:01.039Z,99.77
2023-05-06T03:08:29.809Z,69.53
2023-05-06T03:10:58.210Z,52.13
2023-05-06T03:13:27.184Z,37.53
2023-05-06T03:15:56.509Z,44.90
2023-05-06T03:18:25.082Z,54.70
2023-05-06T03:20:54.826Z,43.63
2023-05-06T03:23:23.423Z,46.40
2023-05-06T03:25:52.474Z,46.93
2023-05-06T03:28:20.962Z,55.70
2023-05-06T03:30:49.724Z,117.40
2023-05-06T03:33:18.190Z,58.27
2023-05-06T03:35:46.684Z,117.20
2023-05-06T03:38:16.426Z,256.50
2023-05-06T03:40:44.909Z,294.83
2023-05-06T03:43:13.251Z,308.03
2023-05-06T03:45:41.600Z,248.87
2023-05-06T03:48:10.556Z,144.03
2023-05-06T03:50:39.258Z,215.33
2023-05-06T03:53:07.738Z,158.80
2023-05-06T03:55:37.752Z,330.23
2023-05-06T03:58:06.197Z,214.67
2023-05-06T04:00:34.597Z,129.23
2023-05-06T04:03:03.061Z,237.60
2023-05-06T04:05:31.881Z,108.37
2023-05-06T04:08:00.496Z,133.00
2023-05-06T04:10:32.925Z,98.60
2023-05-06T04:13:02.700Z,163.63
2023-05-06T04:15:32.876Z,79.03
2023-05-06T04:18:01.562Z,221.63
2023-05-06T04:20:30.229Z,119.80
2023-05-06T04:22:58.670Z,112.07
2023-05-06T04:25:28.030Z,59.47
2023-05-06T04:27:57.067Z,135.83
2023-05-06T04:30:27.721Z,105.97
2023-05-06T04:32:56.424Z,143.80
2023-05-06T04:35:25.398Z,115.07
2023-05-06T04:37:53.873Z,86.77
2023-05-06T04:40:23.993Z,137.07
2023-05-06T04:42:52.779Z,117.33
2023-05-06T04:45:22.341Z,117.53
2023-05-06T04:47:53.006Z,98.70
2023-05-06T04:50:22.504Z,169.20
2023-05-06T04:52:51.103Z,126.90
2023-05-06T04:55:20.085Z,128.33
2023-05-06T04:57:48.511Z,82.70
2023-05-06T05:00:18.184Z,114.80
2023-05-06T05:02:47.112Z,90.70
2023-05-06T05:05:17.429Z,78.67
2023-05-06T05:07:45.734Z,53.93
2023-05-06T05:10:14.331Z,137.00
2023-05-06T05:12:43.863Z,85.83
2023-05-06T05:15:13.147Z,101.70
2023-05-06T05:17:41.746Z,79.20
2023-05-06T05:20:11.298Z,75.80
2023-05-06T05:22:41.054Z,73.50
2023-05-06T05:25:10.201Z,92.30
2023-05-06T05:27:38.931Z,81.47
2023-05-06T05:30:09.643Z,69.30
2023-05-06T05:32:39.459Z,87.40
2023-05-06T05:35:10.317Z,64.77
2023-05-06T05:37:40.450Z,57.23
2023-05-06T05:40:10.637Z,61.03
2023-05-06T05:42:39.687Z,83.67
2023-05-06T05:45:10.957Z,85.07
2023-05-06T05:47:39.597Z,90.00
2023-05-06T05:50:09.992Z,84.83
2023-05-06T05:52:38.355Z,71.70
2023-05-06T05:55:10.853Z,72.83
2023-05-06T05:57:39.496Z,93.50
2023-05-06T06:00:13.806Z,86.87
2023-05-06T06:02:42.403Z,65.33
2023-05-06T06:05:11.476Z,61.93
2023-05-06T06:07:40.023Z,59.60
2023-05-06T06:10:10.791Z,59.77
2023-05-06T06:12:39.584Z,55.40
2023-05-06T06:15:16.917Z,61.60
2023-05-06T06:17:45.404Z,53.07
2023-05-06T06:20:15.256Z,58.93
2023-05-06T06:22:43.684Z,55.90
2023-05-06T06:25:13.749Z,52.10
2023-05-06T06:27:42.188Z,49.90
2023-05-06T06:30:14.307Z,43.30
2023-05-06T06:32:49.945Z,48.73
2023-05-06T06:35:20.195Z,48.47
2023-05-06T06:37:48.905Z,51.60
2023-05-06T06:40:19.013Z,56.50
2023-05-06T06:42:48.013Z,49.27
2023-05-06T06:45:16.932Z,51.53
2023-05-06T06:47:45.489Z,50.60
2023-05-06T06:50:14.336Z,51.03
2023-05-06T06:52:42.672Z,63.70
2023-05-06T06:55:12.144Z,48.57
2023-05-06T06:57:42.200Z,45.07
2023-05-06T07:00:12.666Z,49.10
2023-05-06T07:02:41.214Z,42.83
2023-05-06T07:05:11.012Z,46.17
2023-05-06T07:07:39.480Z,47.60
2023-05-06T07:10:10.019Z,54.70
2023-05-06T07:12:38.476Z,40.80
2023-05-06T07:15:11.555Z,40.90
2023-05-06T07:17:40.103Z,48.37
2023-05-06T07:20:11.919Z,51.30
2023-05-06T07:22:41.358Z,42.77
2023-05-06T07:25:11.139Z,46.57
2023-05-06T07:27:40.041Z,42.80
2023-05-06T07:30:11.302Z,43.87
2023-05-06T07:32:41.157Z,47.70
2023-05-06T07:35:10.917Z,47.10
2023-05-06T07:37:39.488Z,45.10
2023-05-06T07:40:09.808Z,45.53
2023-05-06T07:42:38.100Z,47.33
2023-05-06T07:45:08.212Z,48.40
2023-05-06T07:47:38.057Z,52.20
2023-05-06T07:50:07.467Z,46.47
2023-05-06T07:52:35.835Z,53.87
2023-05-06T07:55:05.100Z,50.70
2023-05-06T07:57:33.448Z,57.63
2023-05-06T08:00:01.901Z,53.00
2023-05-06T08:02:30.283Z,49.20
2023-05-06T08:05:00.372Z,54.07
2023-05-06T08:07:28.797Z,49.47
2023-05-06T08:10:00.540Z,44.70
2023-05-06T08:12:28.888Z,37.47
2023-05-06T08:14:57.656Z,37.90
2023-05-06T08:17:26.504Z,31.93
2023-05-06T08:19:55.977Z,36.47
2023-05-06T08:22:26.038Z,41.60
2023-05-06T08:24:54.956Z,45.83
2023-05-06T08:27:23.597Z,40.77
2023-05-06T08:29:52.700Z,36.37
2023-05-06T08:32:21.200Z,34.80
2023-05-06T08:34:49.988Z,36.77
2023-05-06T08:37:18.515Z,51.93
2023-05-06T08:39:49.238Z,40.87
2023-05-06T08:42:17.976Z,43.00
2023-05-06T08:44:47.215Z,39.20
2023-05-06T08:47:15.732Z,33.97
2023-05-06T08:49:46.235Z,33.57
2023-05-06T08:52:15.332Z,33.50
2023-05-06T08:54:46.052Z,37.80
2023-05-06T08:57:16.293Z,35.77
2023-05-06T08:59:45.161Z,33.97
2023-05-06T09:02:14.018Z,32.83
2023-05-06T09:04:43.016Z,27.07
2023-05-06T09:07:11.481Z,30.13
2023-05-06T09:09:39.938Z,27.17
2023-05-06T09:12:11.775Z,29.87
2023-05-06T09:14:41.997Z,36.80
2023-05-06T09:17:24.139Z,31.93
2023-05-06T09:19:53.950Z,31.40
2023-05-06T09:22:23.831Z,28.83
2023-05-06T09:24:56.944Z,26.20
2023-05-06T09:27:26.556Z,26.53
2023-05-06T09:30:05.987Z,24.33
2023-05-06T09:32:36.811Z,23.13
2023-05-06T09:35:09.384Z,26.40
2023-05-06T09:37:37.952Z,25.07
2023-05-06T09:40:09.380Z,22.77
2023-05-06T09:42:37.989Z,26.83
2023-05-06T09:45:11.817Z,19.73
2023-05-06T09:47:40.942Z,16.13
2023-05-06T09:50:11.711Z,17.43
2023-05-06T09:52:40.112Z,18.60
2023-05-06T09:55:10.385Z,16.90
2023-05-06T09:57:39.129Z,14.80
2023-05-06T10:00:12.086Z,14.37
2023-05-06T10:02:42.702Z,14.40
2023-05-06T10:05:14.005Z,11.00
2023-05-06T10:07:43.098Z,9.50
2023-05-06T10:10:13.514Z,6.30
2023-05-06T10:12:42.082Z,6.77
2023-05-06T10:15:12.788Z,5.23
2023-05-06T10:17:42.497Z,5.33
2023-05-06T10:20:14.941Z,4.90
2023-05-06T10:22:57.364Z,3.90
2023-05-06T10:25:36.560Z,3.70
2023-05-06T10:28:09.222Z,3.73
2023-05-06T10:30:46.513Z,4.33
2023-05-06T10:33:17.022Z,4.53
2023-05-06T10:35:53.626Z,4.60
2023-05-06T10:38:28.052Z,3.43
2023-05-06T10:40:57.138Z,4.23
2023-05-06T10:43:29.409Z,3.10
2023-05-06T10:46:09.199Z,3.45
2023-05-06T10:48:41.174Z,4.20
2023-05-06T10:51:27.401Z,3.35
2023-05-06T10:54:05.534Z,5.00
2023-05-06T10:56:36.452Z,5.22
2023-05-06T10:59:09.092Z,5.35
2023-05-06T11:01:41.460Z,6.82
2023-05-06T11:04:12.365Z,5.65
2023-05-06T11:06:44.763Z,5.63
2023-05-06T11:09:21.338Z,5.95
2023-05-06T11:12:02.278Z,5.93
2023-05-06T11:14:32.993Z,5.53
2023-05-06T11:17:06.851Z,6.53
2023-05-06T11:19:37.359Z,6.83
2023-05-06T11:22:07.592Z,7.87
2023-05-06T11:24:42.196Z,7.57
2023-05-06T11:27:12.619Z,9.17
2023-05-06T11:29:41.034Z,9.87
2023-05-06T11:32:25.377Z,9.53
2023-05-06T11:34:58.269Z,10.03
2023-05-06T11:37:28.482Z,9.77
2023-05-06T11:39:57.577Z,9.83
2023-05-06T11:42:28.559Z,9.48
2023-05-06T11:45:03.182Z,11.95
2023-05-06T11:47:32.943Z,12.93
2023-05-06T11:50:07.534Z,9.63
2023-05-06T11:52:37.347Z,10.73
2023-05-06T11:55:11.105Z,11.07
2023-05-06T11:57:46.375Z,9.60
2023-05-06T12:00:16.424Z,10.00
2023-05-06T12:02:46.265Z,9.02
2023-05-06T12:05:14.966Z,8.55
2023-05-06T12:07:46.175Z,8.95
2023-05-06T12:10:17.166Z,6.85
2023-05-06T12:12:46.029Z,8.30
2023-05-06T12:15:14.502Z,10.40
2023-05-06T12:17:43.217Z,10.82
2023-05-06T12:20:16.768Z,12.40
2023-05-06T12:22:45.375Z,17.67
2023-05-06T12:25:17.977Z,13.57
2023-05-06T12:27:46.831Z,13.03
2023-05-06T12:30:15.692Z,14.20
2023-05-06T12:32:59.944Z,11.93
2023-05-06T12:35:33.188Z,12.30
2023-05-06T12:38:11.693Z,11.93
2023-05-06T12:40:41.496Z,16.43
2023-05-06T12:43:13.479Z,15.30
2023-05-06T12:45:42.303Z,13.37
2023-05-06T12:48:18.026Z,14.13
2023-05-06T12:50:48.181Z,14.30
2023-05-06T12:53:33.809Z,14.07
2023-05-06T12:56:02.289Z,14.40
2023-05-06T12:58:37.356Z,17.10
2023-05-06T13:01:07.657Z,15.20
2023-05-06T13:03:38.607Z,13.67
2023-05-06T13:06:09.128Z,14.57
2023-05-06T13:08:37.937Z,15.77
2023-05-06T13:11:08.322Z,16.43
2023-05-06T13:13:37.055Z,16.20
2023-05-06T13:16:06.397Z,15.97
2023-05-06T13:18:36.040Z,16.47
2023-05-06T13:21:04.986Z,16.30
2023-05-06T13:23:36.699Z,22.80
2023-05-06T13:26:06.168Z,24.83
2023-05-06T13:28:36.663Z,26.10
2023-05-06T13:31:05.903Z,28.17
2023-05-06T13:33:34.705Z,26.20
2023-05-06T13:36:05.257Z,21.60
2023-05-06T13:38:35.409Z,21.00
2023-05-06T13:41:03.836Z,18.10
2023-05-06T13:43:32.144Z,15.87
2023-05-06T13:46:00.568Z,15.83
2023-05-06T13:48:29.033Z,14.43
2023-05-06T13:50:58.897Z,13.77
2023-05-06T13:53:28.047Z,16.47
2023-05-06T13:55:59.564Z,15.90
2023-05-06T13:58:28.875Z,25.77
2023-05-06T14:00:58.183Z,18.40
2023-05-06T14:03:27.880Z,10.67
2023-05-06T14:05:56.759Z,8.20
2023-05-06T14:08:26.423Z,5.00
2023-05-06T14:10:55.492Z,4.97
2023-05-06T14:13:26.682Z,5.23
2023-05-06T14:15:56.720Z,2.10
2023-05-06T14:18:26.611Z,1.93
2023-05-06T14:20:55.449Z,1.70
2023-05-06T14:23:25.256Z,2.97
2023-05-06T14:25:56.554Z,4.43
2023-05-06T14:28:27.328Z,5.50
2023-05-06T14:30:56.607Z,5.73
2023-05-06T14:33:24.943Z,6.77
2023-05-06T14:35:53.649Z,8.73
2023-05-06T14:38:22.892Z,11.57
2023-05-06T14:40:52.630Z,11.03
2023-05-06T14:43:21.243Z,15.00
2023-05-06T14:45:51.307Z,11.67
2023-05-06T14:48:19.836Z,9.53
2023-05-06T14:50:55.067Z,11.47
2023-05-06T14:53:23.668Z,7.50
2023-05-06T14:55:52.644Z,6.57
2023-05-06T14:58:21.609Z,6.67
2023-05-06T15:00:51.539Z,12.13
2023-05-06T15:03:20.260Z,13.70
2023-05-06T15:05:51.111Z,15.87
2023-05-06T15:08:22.327Z,23.73
2023-05-06T15:10:51.388Z,27.07
2023-05-06T15:13:21.852Z,24.47
2023-05-06T15:15:51.598Z,28.63
2023-05-06T15:18:20.141Z,33.87
2023-05-06T15:20:48.666Z,37.03
2023-05-06T15:23:17.346Z,39.50
2023-05-06T15:25:45.726Z,34.60
2023-05-06T15:28:14.763Z,37.93
2023-05-06T15:30:43.119Z,43.73
2023-05-06T15:33:12.792Z,49.83
2023-05-06T15:35:42.589Z,41.50
2023-05-06T15:38:11.107Z,39.87
2023-05-06T15:40:41.178Z,43.60
2023-05-06T15:43:09.814Z,41.60
2023-05-06T15:45:39.167Z,41.33
2023-05-06T15:48:09.315Z,41.50
2023-05-06T15:50:39.694Z,40.53
2023-05-06T15:53:08.310Z,46.83
2023-05-06T15:55:45.221Z,45.13
2023-05-06T15:58:17.789Z,52.10
2023-05-06T16:00:46.156Z,55.20
2023-05-06T16:03:14.801Z,47.90
2023-05-06T16:05:44.812Z,50.77
2023-05-06T16:08:13.161Z,47.30
2023-05-06T16:10:43.081Z,40.07
2023-05-06T16:13:11.545Z,33.70
2023-05-06T16:15:40.156Z,39.53
2023-05-06T16:18:08.711Z,36.17
2023-05-06T16:20:37.455Z,35.20
2023-05-06T16:23:07.389Z,34.17
2023-05-06T16:25:37.807Z,26.73
2023-05-06T16:28:06.749Z,21.43
2023-05-06T16:30:35.076Z,24.97
2023-05-06T16:33:04.140Z,24.97
2023-05-06T16:35:33.641Z,21.63
2023-05-06T16:38:01.986Z,15.23
2023-05-06T16:40:32.192Z,15.03
2023-05-06T16:43:01.218Z,15.83
2023-05-06T16:45:29.667Z,10.23
2023-05-06T16:47:58.269Z,7.77
2023-05-06T16:50:28.273Z,8.40
2023-05-06T16:52:56.591Z,14.07
2023-05-06T16:55:26.715Z,11.10
2023-05-06T16:58:00.502Z,24.80
2023-05-06T17:00:29.973Z,16.90
2023-05-06T17:02:58.564Z,18.67
2023-05-06T17:05:31.034Z,92.73
2023-05-06T17:07:59.740Z,52.67
2023-05-06T17:10:32.757Z,14.67
2023-05-06T17:13:02.881Z,13.63
2023-05-06T17:15:31.448Z,11.67
2023-05-06T17:18:00.029Z,13.73
2023-05-06T17:20:28.709Z,14.00
2023-05-06T17:22:57.739Z,16.70
2023-05-06T17:25:26.459Z,17.97
2023-05-06T17:27:55.292Z,20.60
2023-05-06T17:30:25.350Z,15.03
2023-05-06T17:32:53.605Z,22.57
2023-05-06T17:35:22.114Z,23.97
2023-05-06T17:37:51.568Z,18.73
2023-05-06T17:40:20.290Z,19.23
2023-05-06T17:42:49.053Z,20.70
2023-05-06T17:45:17.632Z,19.50
2023-05-06T17:47:47.582Z,21.30
2023-05-06T17:50:16.211Z,21.67
2023-05-06T17:52:46.329Z,17.70
2023-05-06T17:55:17.364Z,20.47
2023-05-06T17:57:46.279Z,18.60
2023-05-06T18:00:16.886Z,16.00
2023-05-06T18:02:47.513Z,16.70
2023-05-06T18:05:15.948Z,16.97
2023-05-06T18:07:44.360Z,19.53
2023-05-06T18:10:13.048Z,16.90
2023-05-06T18:12:41.613Z,14.77
2023-05-06T18:15:11.702Z,16.27
2023-05-06T18:17:40.650Z,13.03
2023-05-06T18:20:13.226Z,14.60
2023-05-06T18:22:43.011Z,18.33
2023-05-06T18:25:12.017Z,15.73
2023-05-06T18:27:40.801Z,16.23
2023-05-06T18:30:10.208Z,17.30
2023-05-06T18:32:38.572Z,17.10
2023-05-06T18:35:08.340Z,15.00
2023-05-06T18:37:38.669Z,16.30
2023-05-06T18:40:09.911Z,16.13
2023-05-06T18:42:38.541Z,17.03
2023-05-06T18:45:09.136Z,20.27
2023-05-06T18:47:40.177Z,23.87
2023-05-06T18:50:10.461Z,23.47
2023-05-06T18:52:40.260Z,23.03
2023-05-06T18:55:10.053Z,23.87
2023-05-06T18:57:38.698Z,26.13
2023-05-06T19:00:09.028Z,26.27
2023-05-06T19:02:37.988Z,25.63
2023-05-06T19:05:08.307Z,29.77
2023-05-06T19:07:36.844Z,28.53
2023-05-06T19:10:11.564Z,27.93
2023-05-06T19:12:40.265Z,28.67
2023-05-06T19:15:12.331Z,29.40
2023-05-06T19:17:41.365Z,28.90
2023-05-06T19:20:11.464Z,32.10
2023-05-06T19:22:39.866Z,30.70
2023-05-06T19:25:11.424Z,31.97
2023-05-06T19:27:40.009Z,31.83
2023-05-06T19:30:10.942Z,38.80
2023-05-06T19:32:41.377Z,66.53
2023-05-06T19:35:11.283Z,36.90
2023-05-06T19:37:39.884Z,47.83
2023-05-06T19:40:11.305Z,46.37
2023-05-06T19:42:39.693Z,45.47
2023-05-06T19:45:08.964Z,41.37
2023-05-06T19:47:37.877Z,41.47
2023-05-06T19:50:08.344Z,44.97
2023-05-06T19:52:36.953Z,99.97
2023-05-06T19:55:06.081Z,54.37
2023-05-06T19:57:37.077Z,68.27
2023-05-06T20:00:10.714Z,52.57
2023-05-06T20:02:42.763Z,43.87
2023-05-06T20:05:12.065Z,39.70
2023-05-06T20:07:41.308Z,44.97
2023-05-06T20:10:14.319Z,45.60
2023-05-06T20:12:44.110Z,36.90
2023-05-06T20:15:12.850Z,51.53
2023-05-06T20:17:41.286Z,38.03
2023-05-06T20:20:11.518Z,36.63
2023-05-06T20:22:40.885Z,37.03
2023-05-06T20:25:11.590Z,42.90
2023-05-06T20:27:40.312Z,38.67
2023-05-06T20:30:11.309Z,51.50
2023-05-06T20:32:41.557Z,45.77
2023-05-06T20:35:11.274Z,131.17
2023-05-06T20:37:41.256Z,46.00
2023-05-06T20:40:11.528Z,76.00
2023-05-06T20:42:40.238Z,49.40
2023-05-06T20:45:11.442Z,103.87
2023-05-06T20:47:40.136Z,48.07
2023-05-06T20:50:16.411Z,44.43
2023-05-06T20:52:46.128Z,47.20
2023-05-06T20:55:16.132Z,50.67
2023-05-06T20:57:45.105Z,41.20
2023-05-06T21:00:15.857Z,47.20
2023-05-06T21:02:44.541Z,47.73
2023-05-06T21:05:13.505Z,40.83
2023-05-06T21:07:42.263Z,39.77
2023-05-06T21:10:12.048Z,38.57
2023-05-06T21:12:41.076Z,52.43
2023-05-06T21:15:12.050Z,47.50
2023-05-06T21:17:41.996Z,43.87
2023-05-06T21:20:11.874Z,43.73
2023-05-06T21:22:40.301Z,44.43
2023-05-06T21:25:10.448Z,53.50
2023-05-06T21:27:38.966Z,73.83
2023-05-06T21:30:10.580Z,63.63
2023-05-06T21:32:39.286Z,86.80
2023-05-06T21:35:10.547Z,51.80
2023-05-06T21:37:39.367Z,44.87
2023-05-06T21:40:10.368Z,63.00
2023-05-06T21:42:38.786Z,63.43
2023-05-06T21:45:08.831Z,61.80
2023-05-06T21:47:37.860Z,407.90
2023-05-06T21:50:10.616Z,1881.50
2023-05-06T21:52:39.726Z,1397.70
2023-05-06T21:55:09.901Z,377.97
2023-05-06T21:57:38.906Z,194.73
2023-05-06T22:00:12.260Z,129.50
2023-05-06T22:02:41.633Z,161.77
2023-05-06T22:05:12.176Z,107.47
2023-05-06T22:07:41.578Z,230.17
2023-05-06T22:10:10.923Z,207.63
2023-05-06T22:12:39.519Z,193.50
2023-05-06T22:15:09.498Z,75.57
2023-05-06T22:17:38.738Z,75.73
2023-05-06T22:20:12.051Z,163.30
2023-05-06T22:22:41.392Z,118.13
2023-05-06T22:25:11.419Z,157.40
2023-05-06T22:27:40.470Z,73.03
2023-05-06T22:30:11.350Z,84.67
2023-05-06T22:32:39.704Z,85.03
2023-05-06T22:35:11.389Z,69.37
2023-05-06T22:37:39.928Z,56.30
2023-05-06T22:40:12.825Z,52.97
2023-05-06T22:42:41.147Z,54.57
2023-05-06T22:45:11.675Z,69.23
2023-05-06T22:47:40.913Z,62.40
2023-05-06T22:50:12.820Z,94.03
2023-05-06T22:52:41.238Z,62.70
2023-05-06T22:55:11.043Z,77.80
2023-05-06T22:57:39.796Z,62.23
2023-05-06T23:00:12.699Z,111.67
2023-05-06T23:02:41.430Z,331.30
2023-05-06T23:05:12.032Z,89.07
2023-05-06T23:07:40.740Z,81.43
2023-05-06T23:10:10.811Z,72.00
2023-05-06T23:12:39.927Z,57.93
2023-05-06T23:15:09.577Z,50.03
2023-05-06T23:17:38.271Z,44.90
2023-05-06T23:20:08.346Z,51.70
2023-05-06T23:22:46.605Z,65.63
2023-05-06T23:25:20.730Z,55.17
2023-05-06T23:27:49.112Z,55.27
2023-05-06T23:30:17.551Z,59.87
2023-05-06T23:32:46.003Z,67.47
2023-05-06T23:35:14.400Z,51.80
2023-05-06T23:37:44.270Z,75.77
2023-05-06T23:40:14.933Z,203.87
2023-05-06T23:42:43.345Z,66.13
2023-05-06T23:45:12.394Z,59.50
2023-05-06T23:47:41.104Z,52.80
2023-05-06T23:50:10.346Z,53.47
2023-05-06T23:52:39.337Z,48.27
2023-05-06T23:55:10.520Z,47.77
2023-05-06T23:57:39.231Z,51.70
